Time;durP1;ratioP1;P1;durP2;ratioP2;P2;SDS_P1;SDS_P2;PMS_P1;PMS_P2;Temp;Humidity;BMP_temperature;BMP_pressure;BME280_temperature;BME280_humidity;BME280_pressure;Samples;Min_cycle;Max_cycle;Signal;HPM_P1;HPM_P2
2022/11/29 00:00:10;;;;;;;21.93;18.10;;;;;;;7.02;70.63;97711.50;8319570;28;20256;-71
2022/11/29 00:04:13;;;;;;;22.80;18.50;;;;;;;7.09;69.71;97703.59;8319149;28;20276;-71
2022/11/29 00:08:16;;;;;;;24.93;20.47;;;;;;;6.83;71.02;97706.16;8318830;28;20273;-71
2022/11/29 00:12:20;;;;;;;22.17;18.53;;;;;;;6.87;69.25;97709.44;8318418;28;20237;-71
2022/11/29 00:16:23;;;;;;;20.30;16.63;;;;;;;7.03;69.36;97704.63;8318561;28;20226;-71
2022/11/29 00:20:25;;;;;;;23.67;19.60;;;;;;;6.91;70.80;97699.88;8319037;28;20226;-71
2022/11/29 00:24:30;;;;;;;19.10;16.30;;;;;;;7.58;67.92;97699.28;8318639;28;20226;-71
2022/11/29 00:28:35;;;;;;;19.80;16.87;;;;;;;7.41;68.70;97697.31;8318416;28;20552;-71
2022/11/29 00:32:38;;;;;;;18.33;16.33;;;;;;;7.53;67.67;97699.44;8318282;28;20580;-71
2022/11/29 00:36:41;;;;;;;20.63;16.57;;;;;;;7.31;68.29;97701.94;8318135;28;20268;-71
2022/11/29 00:40:44;;;;;;;24.83;19.30;;;;;;;7.39;68.64;97699.94;8318187;28;20222;-71
2022/11/29 00:44:48;;;;;;;20.83;16.67;;;;;;;7.54;68.00;97698.53;8317672;28;20234;-71
2022/11/29 00:48:51;;;;;;;20.00;17.53;;;;;;;7.26;67.70;97695.28;8317852;28;20230;-71
2022/11/29 00:52:53;;;;;;;19.17;16.57;;;;;;;7.72;66.67;97691.84;8317088;28;20284;-70
2022/11/29 00:56:56;;;;;;;20.40;16.47;;;;;;;7.65;66.81;97687.81;8317169;28;20304;-71
2022/11/29 01:01:00;;;;;;;21.93;16.67;;;;;;;7.24;67.79;97685.03;8316712;28;20241;-71
2022/11/29 01:05:03;;;;;;;17.90;15.70;;;;;;;7.37;67.85;97672.56;8317196;28;20238;-71
2022/11/29 01:09:06;;;;;;;21.07;17.63;;;;;;;6.70;69.74;97673.13;8317136;28;20277;-71
2022/11/29 01:13:09;;;;;;;22.77;18.20;;;;;;;6.57;70.36;97683.84;8316869;28;20241;-71
2022/11/29 01:17:14;;;;;;;22.30;18.43;;;;;;;7.04;69.71;97690.84;8317131;28;20557;-71
2022/11/29 01:21:19;;;;;;;24.47;18.60;;;;;;;6.78;70.61;97684.88;8316892;28;20235;-71
2022/11/29 01:25:22;;;;;;;23.57;17.87;;;;;;;7.03;69.44;97687.44;8316730;28;20284;-71
2022/11/29 01:29:24;;;;;;;21.73;17.87;;;;;;;7.26;68.34;97680.66;8316799;28;20233;-71
2022/11/29 01:33:29;;;;;;;19.67;17.10;;;;;;;7.03;69.10;97678.88;8316737;28;20522;-71
2022/11/29 01:37:32;;;;;;;23.77;17.97;;;;;;;7.24;67.49;97678.13;8316397;28;20250;-71
2022/11/29 01:41:36;;;;;;;23.53;18.30;;;;;;;7.01;68.77;97685.84;8315579;28;20234;-71
2022/11/29 01:45:39;;;;;;;24.97;19.00;;;;;;;6.81;69.24;97684.75;8316051;28;20226;-71
2022/11/29 01:49:45;;;;;;;21.17;17.67;;;;;;;7.03;68.91;97678.88;8316056;28;20226;-71
2022/11/29 01:53:48;;;;;;;20.77;17.73;;;;;;;7.14;68.51;97679.34;8316058;28;20568;-71
2022/11/29 01:57:51;;;;;;;22.17;17.87;;;;;;;7.02;69.29;97677.19;8315676;28;20250;-71
2022/11/29 02:01:57;;;;;;;21.27;17.63;;;;;;;7.17;68.44;97675.81;8315460;28;20276;-70
2022/11/29 02:06:01;;;;;;;22.03;17.47;;;;;;;6.79;70.19;97681.38;8315841;28;20238;-71
2022/11/29 02:10:05;;;;;;;21.70;17.13;;;;;;;7.40;68.39;97683.56;8315238;28;20242;-71
2022/11/29 02:14:20;;;;;;;21.77;17.00;;;;;;;7.35;67.77;97687.19;8315151;28;20234;-71
2022/11/29 02:18:29;;;;;;;21.10;18.07;;;;;;;6.97;69.26;97687.66;8314995;28;20234;-71
2022/11/29 02:22:36;;;;;;;21.80;17.53;;;;;;;6.98;68.82;97675.63;8314982;28;20245;-71
2022/11/29 02:27:15;;;;;;;21.57;17.70;;;;;;;6.78;68.72;97679.72;8314782;28;20591;-71
2022/11/29 02:31:49;;;;;;;21.50;18.37;;;;;;;7.07;68.29;97682.19;8289677;28;20226;-71
2022/11/29 02:36:35;;;;;;;22.97;17.57;;;;;;;7.13;67.50;97680.25;8314295;28;20222;-70
2022/11/29 02:40:53;;;;;;;21.80;17.67;;;;;;;7.57;66.55;97682.94;8293930;28;20226;-71
2022/11/29 02:45:08;;;;;;;22.83;18.10;;;;;;;6.98;67.84;97681.59;8314058;28;20241;-71
2022/11/29 02:49:15;;;;;;;19.13;17.03;;;;;;;7.05;68.27;97683.09;8314039;28;20237;-71
2022/11/29 02:53:24;;;;;;;23.47;17.30;;;;;;;7.04;68.46;97681.41;8314348;28;20268;-71
2022/11/29 02:57:33;;;;;;;20.50;17.30;;;;;;;7.09;68.34;97688.13;8314082;28;20284;-71
2022/11/29 03:01:41;;;;;;;21.87;18.17;;;;;;;6.74;68.62;97690.16;8314045;28;20226;-71
2022/11/29 03:05:50;;;;;;;22.13;16.90;;;;;;;6.72;69.12;97695.38;8314086;28;20328;-71
2022/11/29 03:10:00;;;;;;;21.27;17.73;;;;;;;6.72;68.88;97691.94;8313539;28;20234;-70
2022/11/29 03:14:14;;;;;;;22.77;17.00;;;;;;;7.26;67.40;97700.44;8313740;28;20238;-71
2022/11/29 03:18:34;;;;;;;19.67;17.13;;;;;;;6.97;67.36;97676.53;8314101;28;20272;-71
2022/11/29 03:22:42;;;;;;;22.17;17.70;;;;;;;7.13;67.10;97694.84;8317180;28;20230;-71
2022/11/29 03:26:49;;;;;;;23.07;18.33;;;;;;;7.14;67.26;97696.53;8319932;28;20326;-71
2022/11/29 03:30:58;;;;;;;23.17;18.73;;;;;;;6.49;70.37;97703.81;8319681;28;20248;-71
2022/11/29 03:35:05;;;;;;;21.43;18.07;;;;;;;7.05;67.12;97701.09;8320092;28;20234;-71
2022/11/29 03:39:15;;;;;;;20.70;18.20;;;;;;;7.28;66.78;97714.09;8319774;28;20238;-71
2022/11/29 03:43:23;;;;;;;21.50;18.27;;;;;;;7.30;67.15;97715.72;8319620;28;20230;-71
2022/11/29 03:47:30;;;;;;;18.63;16.63;;;;;;;7.44;67.01;97715.22;8319647;28;20222;-71
2022/11/29 03:51:48;;;;;;;18.73;16.23;;;;;;;7.42;65.87;97710.13;8319174;28;20548;-71
2022/11/29 03:55:54;;;;;;;21.30;17.97;;;;;;;7.65;65.54;97713.59;8319164;28;20237;-71
2022/11/29 04:00:03;;;;;;;20.00;17.10;;;;;;;7.63;65.95;97717.97;8318725;28;20289;-71
2022/11/29 04:04:40;;;;;;;18.50;16.13;;;;;;;7.40;66.68;97708.50;8318610;28;20238;-71
2022/11/29 04:08:57;;;;;;;20.87;16.67;;;;;;;7.52;65.76;97700.34;8277185;28;20587;-71
2022/11/29 04:13:56;;;;;;;21.30;18.07;;;;;;;7.39;66.51;97706.81;8317951;28;20300;-71
2022/11/29 04:18:18;;;;;;;21.23;16.70;;;;;;;7.37;66.54;97708.63;8318165;28;20230;-71
2022/11/29 04:22:29;;;;;;;21.30;17.87;;;;;;;7.14;67.44;97701.69;8318243;28;20533;-71
2022/11/29 04:26:53;;;;;;;20.07;17.00;;;;;;;7.20;68.41;97722.09;8318188;28;20254;-71
2022/11/29 04:31:00;;;;;;;19.47;16.43;;;;;;;7.46;66.95;97722.91;8317807;28;20230;-71
2022/11/29 04:35:29;;;;;;;20.37;18.10;;;;;;;7.26;67.38;97719.28;8316853;28;20226;-71
2022/11/29 04:39:49;;;;;;;18.97;16.07;;;;;;;7.47;66.94;97722.84;8317679;28;20230;-71
2022/11/29 04:44:05;;;;;;;19.37;16.67;;;;;;;6.99;68.14;97726.25;8300025;28;20452;-70
2022/11/29 04:48:26;;;;;;;21.00;17.07;;;;;;;7.37;67.22;97729.22;8317875;28;20296;-71
2022/11/29 04:52:43;;;;;;;20.67;17.20;;;;;;;7.51;66.62;97736.47;8317591;28;20237;-70
2022/11/29 04:56:50;;;;;;;20.33;16.33;;;;;;;7.53;66.09;97738.09;8317092;28;20248;-72
2022/11/29 05:01:00;;;;;;;18.93;16.30;;;;;;;7.79;65.96;97739.72;8316929;28;20409;-71
2022/11/29 05:05:11;;;;;;;22.37;19.10;;;;;;;7.03;69.06;97740.69;8317240;28;20261;-71
2022/11/29 05:09:22;;;;;;;19.40;16.90;;;;;;;7.60;67.30;97749.03;8317047;28;20234;-71
2022/11/29 05:13:29;;;;;;;18.93;16.67;;;;;;;7.54;67.37;97744.06;8316947;28;20449;-72
2022/11/29 05:17:35;;;;;;;20.67;16.60;;;;;;;7.75;66.43;97750.19;8316795;28;20261;-70
2022/11/29 05:21:45;;;;;;;18.70;16.37;;;;;;;7.38;67.56;97751.50;8316676;28;20226;-70
2022/11/29 05:25:55;;;;;;;19.27;16.83;;;;;;;7.45;67.66;97760.72;8316420;28;20238;-70
2022/11/29 05:30:03;;;;;;;20.00;16.90;;;;;;;7.55;66.77;97750.91;8315985;28;20239;-70
2022/11/29 05:34:21;;;;;;;20.17;16.40;;;;;;;7.76;66.90;97763.03;8316434;28;20234;-70
2022/11/29 05:38:38;;;;;;;18.23;16.27;;;;;;;7.83;66.46;97766.22;8316200;28;20230;-70
2022/11/29 05:42:54;;;;;;;19.57;16.57;;;;;;;7.54;67.28;97769.84;8316016;28;20502;-70
2022/11/29 05:46:59;;;;;;;18.37;16.30;;;;;;;7.81;67.04;97760.28;8315044;28;20241;-70
2022/11/29 05:51:11;;;;;;;20.67;16.93;;;;;;;7.39;68.70;97764.34;8315746;28;20245;-70
2022/11/29 05:55:25;;;;;;;24.03;18.07;;;;;;;7.44;68.17;97772.75;8315767;28;20226;-70
2022/11/29 05:59:30;;;;;;;20.90;16.67;;;;;;;7.96;66.62;97775.19;8315526;28;20226;-70
2022/11/29 06:03:37;;;;;;;21.63;17.30;;;;;;;7.90;66.79;97774.56;8315557;28;20234;-70
2022/11/29 06:07:44;;;;;;;19.00;16.27;;;;;;;7.84;67.24;97775.63;8315202;28;20254;-71
2022/11/29 06:11:49;;;;;;;21.57;17.20;;;;;;;7.76;67.67;97782.81;8314690;28;20226;-72
2022/11/29 06:16:18;;;;;;;20.03;17.63;;;;;;;7.32;68.98;97788.63;8314611;28;20226;-72
2022/11/29 06:20:33;;;;;;;20.97;16.60;;;;;;;7.89;67.39;97790.97;8314616;28;20261;-70
2022/11/29 06:24:49;;;;;;;21.67;17.07;;;;;;;7.79;67.58;97795.59;8314698;28;20230;-71
2022/11/29 06:29:00;;;;;;;19.07;16.40;;;;;;;7.73;67.64;97796.66;8314581;28;20230;-70
2022/11/29 06:33:10;;;;;;;19.17;15.80;;;;;;;7.91;67.64;97802.88;8314526;28;20526;-70
2022/11/29 06:37:16;;;;;;;23.03;18.53;;;;;;;7.71;68.06;97806.19;8314366;28;20295;-70
2022/11/29 06:41:20;;;;;;;22.43;17.03;;;;;;;7.75;67.49;97804.31;8314440;28;20357;-71
2022/11/29 06:45:24;;;;;;;22.10;16.80;;;;;;;7.85;67.84;97797.94;8314092;28;20230;-71
2022/11/29 06:49:30;;;;;;;23.03;17.40;;;;;;;7.80;67.43;97812.75;8314786;28;20281;-72
2022/11/29 06:53:39;;;;;;;21.10;17.67;;;;;;;7.97;67.73;97814.72;8314493;28;20238;-72
2022/11/29 06:57:52;;;;;;;25.37;18.67;;;;;;;7.89;67.50;97809.00;8318022;28;20254;-72
2022/11/29 07:02:01;;;;;;;23.67;18.83;;;;;;;7.78;68.41;97814.53;8320687;28;20230;-72
2022/11/29 07:06:12;;;;;;;26.10;19.60;;;;;;;7.97;66.45;97823.28;8321086;28;20479;-72
2022/11/29 07:10:17;;;;;;;22.03;16.73;;;;;;;7.66;68.71;97815.81;8320366;28;20308;-72
2022/11/29 07:14:20;;;;;;;22.43;18.00;;;;;;;7.80;68.49;97825.63;8319995;28;20554;-72
2022/11/29 07:18:28;;;;;;;25.90;18.90;;;;;;;7.72;67.66;97830.22;8320473;28;20241;-72
2022/11/29 07:22:45;;;;;;;23.30;18.53;;;;;;;7.49;70.11;97836.19;8320358;28;20218;-72
2022/11/29 07:26:53;;;;;;;24.73;18.90;;;;;;;7.62;69.17;97840.00;8320059;28;20230;-72
2022/11/29 07:31:06;;;;;;;26.60;19.73;;;;;;;7.51;69.13;97847.28;8319831;28;20426;-71
2022/11/29 07:35:15;;;;;;;26.63;18.83;;;;;;;7.81;68.76;97840.22;8320006;28;20530;-72
2022/11/29 07:39:25;;;;;;;26.17;18.50;;;;;;;7.87;68.60;97839.16;8319605;28;20229;-72
2022/11/29 07:43:35;;;;;;;25.90;19.03;;;;;;;7.87;67.55;97847.72;8319874;28;20222;-72
2022/11/29 07:47:38;;;;;;;24.10;19.40;;;;;;;7.96;68.33;97844.00;8319701;28;20230;-72
2022/11/29 07:51:41;;;;;;;24.93;19.23;;;;;;;7.89;68.47;97853.66;8319731;28;20237;-72
2022/11/29 07:55:47;;;;;;;25.83;19.97;;;;;;;7.61;69.64;97857.19;8319081;28;20226;-72
2022/11/29 07:59:49;;;;;;;21.50;17.90;;;;;;;8.09;67.71;97854.69;8319086;28;20229;-72
2022/11/29 08:03:52;;;;;;;26.73;19.20;;;;;;;7.99;68.10;97857.59;8318581;28;20245;-70
2022/11/29 08:07:55;;;;;;;23.53;19.00;;;;;;;7.94;68.40;97861.22;8318301;28;20545;-72
2022/11/29 08:11:59;;;;;;;24.50;18.10;;;;;;;7.69;75.56;97867.28;8318669;28;20457;-71
2022/11/29 08:16:02;;;;;;;20.90;17.80;;;;;;;7.80;73.51;97866.88;8318368;28;20418;-73
2022/11/29 08:20:06;;;;;;;22.10;16.90;;;;;;;9.73;69.22;97871.53;8318297;28;20253;-71
2022/11/29 08:24:09;;;;;;;22.23;17.90;;;;;;;8.83;67.84;97865.72;8317702;28;20230;-72
2022/11/29 08:28:14;;;;;;;25.00;19.77;;;;;;;7.96;68.55;97870.63;8318010;28;20525;-73
2022/11/29 08:32:17;;;;;;;23.23;18.20;;;;;;;8.11;68.31;97871.81;8317705;28;20240;-71
2022/11/29 08:36:20;;;;;;;25.00;18.23;;;;;;;8.17;68.13;97876.75;8317664;28;20246;-71
2022/11/29 08:40:23;;;;;;;24.47;19.80;;;;;;;7.97;68.28;97872.28;8317988;28;20226;-71
2022/11/29 08:44:27;;;;;;;22.20;17.80;;;;;;;7.75;69.39;97877.34;8317836;28;20230;-71
2022/11/29 08:48:30;;;;;;;23.57;18.60;;;;;;;7.75;70.37;97882.50;8317872;28;20273;-71
2022/11/29 08:56:55;;;;;;;23.37;18.80;;;;;;;7.81;69.72;97886.63;8317164;28;20238;-71
2022/11/29 09:01:20;;;;;;;22.17;17.53;;;;;;;7.87;70.20;97888.97;8317172;28;20325;-71
2022/11/29 09:05:23;;;;;;;24.83;18.80;;;;;;;7.86;68.95;97891.59;8317057;28;20289;-72
2022/11/29 09:09:26;;;;;;;22.90;18.37;;;;;;;7.71;70.45;97899.00;8316833;28;20230;-72
2022/11/29 09:13:28;;;;;;;24.03;18.47;;;;;;;7.73;70.90;97904.06;8316507;28;20236;-72
2022/11/29 09:17:32;;;;;;;21.27;17.60;;;;;;;7.83;69.56;97911.44;8316359;28;20253;-72
2022/11/29 09:21:38;;;;;;;23.87;18.73;;;;;;;7.53;71.00;97908.16;8315887;28;20238;-72
2022/11/29 09:25:41;;;;;;;27.43;19.63;;;;;;;7.55;71.23;97913.25;8316481;28;20245;-71
2022/11/29 09:29:44;;;;;;;21.80;17.40;;;;;;;8.11;69.49;97914.78;8316435;28;20230;-71
2022/11/29 09:33:48;;;;;;;24.47;18.97;;;;;;;8.01;70.36;97912.56;8316110;28;20230;-71
2022/11/29 09:37:51;;;;;;;27.43;21.70;;;;;;;7.87;70.39;97911.34;8316378;28;20233;-71
2022/11/29 09:42:26;;;;;;;34.07;23.27;;;;;;;7.71;70.21;97911.88;8315496;28;20226;-70
2022/11/29 09:46:35;;;;;;;23.00;18.57;;;;;;;8.06;69.74;97920.13;8315724;28;20237;-71
2022/11/29 09:50:44;;;;;;;43.80;31.67;;;;;;;7.83;70.56;97919.19;8315858;28;20557;-72
2022/11/29 09:54:52;;;;;;;23.43;18.77;;;;;;;8.05;70.16;97921.00;8315302;28;20230;-73
2022/11/29 09:58:58;;;;;;;23.60;19.03;;;;;;;7.55;71.49;97928.72;8315043;28;20294;-70
2022/11/29 10:03:03;;;;;;;23.53;18.90;;;;;;;7.60;71.34;97926.84;8315450;28;20514;-72
2022/11/29 10:07:11;;;;;;;25.00;19.83;;;;;;;7.84;70.70;97930.31;8315096;28;20464;-71
2022/11/29 10:11:21;;;;;;;25.23;19.77;;;;;;;8.37;68.62;97929.34;8315104;28;20406;-71
2022/11/29 10:15:27;;;;;;;31.33;21.57;;;;;;;7.76;70.29;97865.31;8314899;28;20419;-71
2022/11/29 10:19:32;;;;;;;24.03;19.70;;;;;;;7.51;71.32;97924.56;8315256;28;20222;-71
2022/11/29 10:23:41;;;;;;;26.37;19.17;;;;;;;8.11;69.54;97931.13;8314999;28;20529;-71
2022/11/29 10:27:43;;;;;;;24.80;19.90;;;;;;;7.77;70.62;97924.56;8314708;28;20234;-71
2022/11/29 10:31:48;;;;;;;29.70;20.40;;;;;;;8.06;70.18;97930.44;8314859;28;20248;-71
2022/11/29 10:35:52;;;;;;;26.70;21.13;;;;;;;7.95;70.40;97896.44;8314662;28;20424;-71
2022/11/29 10:40:03;;;;;;;22.33;17.37;;;;;;;8.00;70.80;97938.41;8314319;28;20249;-70
2022/11/29 10:44:05;;;;;;;19.00;15.90;;;;;;;8.48;69.72;97929.00;8314547;28;20238;-70
2022/11/29 10:48:12;;;;;;;21.63;17.13;;;;;;;8.43;69.96;97928.31;8314466;28;20232;-71
2022/11/29 10:52:18;;;;;;;22.43;16.97;;;;;;;8.34;70.35;97920.00;8314670;28;20226;-71
2022/11/29 10:56:28;;;;;;;25.60;18.47;;;;;;;8.23;70.29;97911.81;8314330;28;20230;-71
2022/11/29 11:00:31;;;;;;;22.27;17.07;;;;;;;8.44;69.54;97923.13;8314147;28;20226;-71
2022/11/29 11:04:36;;;;;;;23.70;17.43;;;;;;;8.18;70.66;97931.75;8314158;28;20226;-71
2022/11/29 11:08:42;;;;;;;22.73;17.60;;;;;;;8.19;70.84;97933.44;8313960;28;20242;-72
2022/11/29 11:13:01;;;;;;;18.50;14.80;;;;;;;8.41;70.16;97933.50;8314016;28;20484;-72
2022/11/29 11:17:22;;;;;;;20.73;16.30;;;;;;;8.26;70.78;97929.72;8313392;28;20230;-71
2022/11/29 11:21:28;;;;;;;22.10;15.67;;;;;;;8.64;69.43;97935.28;8313833;28;20233;-72
2022/11/29 11:25:33;;;;;;;22.20;16.20;;;;;;;8.52;69.84;97936.56;8313829;28;20231;-72
2022/11/29 11:29:39;;;;;;;20.23;15.70;;;;;;;8.08;71.32;97935.56;8313981;28;20230;-72
2022/11/29 11:33:43;;;;;;;19.93;15.80;;;;;;;8.16;71.91;97939.53;8313994;28;20230;-72
2022/11/29 11:37:55;;;;;;;20.73;16.37;;;;;;;8.41;70.70;97941.25;8314009;28;20254;-72
2022/11/29 11:46:20;;;;;;;21.23;15.97;;;;;;;8.22;71.15;97947.09;8319809;28;20238;-72
2022/11/29 11:50:29;;;;;;;19.30;14.53;;;;;;;8.50;70.55;97947.88;8319476;28;20279;-72
2022/11/29 11:54:32;;;;;;;16.67;14.37;;;;;;;8.55;70.48;97945.97;8319591;28;20257;-71
2022/11/29 11:58:37;;;;;;;21.73;16.57;;;;;;;7.77;72.71;97952.06;8319642;28;20230;-72
2022/11/29 12:02:44;;;;;;;16.83;14.00;;;;;;;8.39;71.41;97950.78;8319491;28;20233;-72
2022/11/29 12:06:51;;;;;;;15.70;13.47;;;;;;;8.32;71.27;97952.75;8319046;28;20242;-72
2022/11/29 12:10:57;;;;;;;20.33;14.87;;;;;;;7.92;72.35;97940.38;8318682;28;20518;-71
2022/11/29 12:15:08;;;;;;;13.93;12.07;;;;;;;8.55;70.85;97951.13;8317945;28;20548;-72
2022/11/29 12:19:18;;;;;;;20.90;15.97;;;;;;;8.51;70.93;97952.09;8318903;28;20237;-71
2022/11/29 12:23:27;;;;;;;19.57;15.43;;;;;;;8.51;71.12;97959.84;8318841;28;20226;-70
2022/11/29 12:27:30;;;;;;;19.03;15.30;;;;;;;8.26;71.22;97950.38;8318297;28;20239;-71
2022/11/29 12:31:45;;;;;;;15.53;12.47;;;;;;;8.64;70.11;97962.84;8318291;28;20334;-72
2022/11/29 12:36:08;;;;;;;15.63;13.03;;;;;;;8.92;69.48;97965.25;8318281;28;20226;-72
2022/11/29 12:40:16;;;;;;;17.17;13.53;;;;;;;8.72;69.06;97964.25;8317965;28;20463;-72
2022/11/29 12:44:28;;;;;;;16.20;13.57;;;;;;;9.01;68.98;97962.31;8318077;28;20234;-72
2022/11/29 12:48:36;;;;;;;20.23;15.40;;;;;;;8.88;68.83;97969.69;8317793;28;20580;-73
2022/11/29 12:52:47;;;;;;;17.20;13.10;;;;;;;8.95;69.15;97972.88;8317957;28;20234;-73
2022/11/29 12:56:58;;;;;;;27.87;19.87;;;;;;;8.83;68.46;97973.34;8316610;28;20281;-72
2022/11/29 13:01:06;;;;;;;44.80;32.63;;;;;;;8.73;69.21;97981.41;8316898;28;20252;-72
2022/11/29 13:05:15;;;;;;;18.10;14.67;;;;;;;8.66;69.59;97979.09;8317319;28;20231;-73
2022/11/29 13:09:49;;;;;;;18.30;16.00;;;;;;;8.61;69.93;97987.03;8317036;28;20562;-72
2022/11/29 13:13:58;;;;;;;20.83;16.30;;;;;;;8.25;71.35;97984.00;8316860;28;20237;-72
2022/11/29 13:18:23;;;;;;;17.03;14.13;;;;;;;8.80;69.25;97977.72;8316809;28;20458;-72
2022/11/29 13:22:31;;;;;;;18.27;15.30;;;;;;;8.61;70.27;97974.13;8316822;28;20273;-72
2022/11/29 13:26:37;;;;;;;21.00;15.30;;;;;;;8.96;68.51;97977.97;8316473;28;20233;-72
2022/11/29 13:30:40;;;;;;;18.63;14.97;;;;;;;8.87;69.30;97987.81;8316697;28;20238;-72
2022/11/29 13:34:45;;;;;;;19.60;15.23;;;;;;;9.14;68.86;97997.13;8316413;28;20290;-72
2022/11/29 13:38:58;;;;;;;21.47;17.20;;;;;;;8.95;68.36;97975.47;8316062;28;20227;-71
2022/11/29 13:43:09;;;;;;;18.33;14.50;;;;;;;8.71;70.23;97993.53;8315623;28;20227;-71
2022/11/29 13:47:13;;;;;;;16.73;14.23;;;;;;;8.88;69.93;97994.66;8316235;28;20459;-71
2022/11/29 13:51:24;;;;;;;16.67;13.60;;;;;;;9.18;68.69;97992.69;8316104;28;20223;-72
2022/11/29 13:55:30;;;;;;;16.67;13.03;;;;;;;9.16;69.35;98000.47;8315985;28;20278;-71
2022/11/29 13:59:37;;;;;;;16.60;14.57;;;;;;;9.22;69.23;97994.25;8316007;28;20231;-72
2022/11/29 14:03:51;;;;;;;18.00;14.10;;;;;;;9.25;68.51;97982.94;8315841;28;20221;-71
2022/11/29 14:08:25;;;;;;;16.70;13.77;;;;;;;9.31;68.37;97999.06;8314873;28;20547;-70
2022/11/29 14:12:37;;;;;;;17.80;15.17;;;;;;;9.19;68.90;98009.84;8315370;28;20303;-71
2022/11/29 14:16:47;;;;;;;16.60;14.80;;;;;;;9.29;68.73;98008.63;8315165;28;20236;-71
2022/11/29 14:20:59;;;;;;;19.67;16.70;;;;;;;8.83;69.92;98012.91;8315260;28;20250;-71
2022/11/29 14:25:22;;;;;;;16.23;14.50;;;;;;;9.05;70.15;98015.53;8314592;28;20449;-71
2022/11/29 14:29:55;;;;;;;16.53;14.37;;;;;;;9.28;69.15;98006.91;8314800;28;20310;-71
2022/11/29 14:34:05;;;;;;;18.93;14.83;;;;;;;9.28;68.71;98004.34;8314563;28;20405;-71
2022/11/29 14:38:13;;;;;;;19.37;15.30;;;;;;;9.28;69.15;98017.25;8314372;28;20239;-71
2022/11/29 14:42:18;;;;;;;21.63;16.37;;;;;;;9.27;68.72;98007.84;8314156;28;20237;-71
2022/11/29 14:46:32;;;;;;;19.97;15.13;;;;;;;9.34;68.81;98024.78;8314813;28;20231;-72
2022/11/29 14:50:38;;;;;;;20.63;16.20;;;;;;;9.30;68.35;98020.63;8314574;28;20225;-70
2022/11/29 14:54:52;;;;;;;18.33;15.37;;;;;;;9.42;68.24;98032.22;8314223;28;20230;-71
2022/11/29 14:59:30;;;;;;;19.37;15.37;;;;;;;9.27;68.71;98031.09;8313653;28;20292;-73
2022/11/29 15:03:37;;;;;;;18.83;15.73;;;;;;;9.10;68.76;98011.06;8314125;28;20226;-72
2022/11/29 15:07:44;;;;;;;17.37;15.50;;;;;;;9.32;68.38;98031.75;8314160;28;20238;-72
2022/11/29 15:11:51;;;;;;;21.00;17.00;;;;;;;9.28;68.48;98039.69;8314108;28;20236;-73
2022/11/29 15:16:14;;;;;;;17.90;15.37;;;;;;;9.40;68.05;98039.19;8312786;28;20246;-72
2022/11/29 15:20:31;;;;;;;18.00;15.47;;;;;;;9.37;68.39;98044.50;8320200;28;20255;-73
2022/11/29 15:29:20;;;;;;;17.30;15.43;;;;;;;9.42;68.55;98054.66;8420104;27;20577;-72
2022/11/29 15:33:24;;;;;;;20.33;17.00;;;;;;;9.32;68.14;98049.81;8409228;28;20226;-71
2022/11/29 15:37:41;;;;;;;19.03;16.97;;;;;;;9.25;68.92;98053.53;8409283;28;20235;-71
2022/11/29 15:41:44;;;;;;;17.03;14.80;;;;;;;9.35;68.36;98064.41;8408956;28;20229;-71
2022/11/29 15:45:49;;;;;;;19.33;17.33;;;;;;;9.09;68.23;98061.03;8408964;28;20224;-71
2022/11/29 15:49:53;;;;;;;23.03;18.63;;;;;;;9.25;68.60;98069.03;8408651;28;20216;-72
2022/11/29 15:54:00;;;;;;;18.67;15.83;;;;;;;9.34;68.26;98073.88;8400637;28;20455;-71
2022/11/29 15:58:15;;;;;;;17.33;15.43;;;;;;;9.35;68.43;98072.16;8408795;28;20504;-71
2022/11/29 16:02:21;;;;;;;21.37;18.63;;;;;;;9.21;69.11;98070.06;8408932;28;20409;-71
2022/11/29 16:06:28;;;;;;;20.60;16.23;;;;;;;9.33;68.23;98079.13;8411653;28;20233;-70
2022/11/29 16:10:34;;;;;;;20.50;17.77;;;;;;;9.29;68.32;98078.41;8407782;28;20296;-71
2022/11/29 16:14:48;;;;;;;20.90;16.30;;;;;;;9.39;68.40;98086.63;8407874;28;20358;-72
2022/11/29 16:18:52;;;;;;;19.03;16.77;;;;;;;9.30;68.39;98087.81;8407929;28;20229;-72
2022/11/29 16:23:11;;;;;;;18.70;14.97;;;;;;;9.44;67.71;98083.88;8407234;28;20229;-71
2022/11/29 16:27:14;;;;;;;20.37;17.60;;;;;;;9.37;68.13;98091.88;8396232;28;20226;-72
2022/11/29 16:31:18;;;;;;;24.53;17.53;;;;;;;9.28;68.38;98092.19;8374706;28;20338;-71
2022/11/29 16:35:26;;;;;;;19.43;16.73;;;;;;;9.21;69.04;98093.31;8374160;28;20532;-71
2022/11/29 16:39:29;;;;;;;34.03;26.70;;;;;;;8.92;69.46;98099.56;8356953;28;20306;-71
2022/11/29 16:43:54;;;;;;;39.90;28.10;;;;;;;9.14;68.57;98068.63;8352034;28;20234;-71
2022/11/29 16:47:58;;;;;;;38.20;29.97;;;;;;;9.26;68.77;98101.75;8351098;28;20234;-71
2022/11/29 16:52:04;;;;;;;35.00;27.73;;;;;;;9.32;68.44;98098.09;8351562;28;20429;-71
2022/11/29 16:56:10;;;;;;;22.33;19.07;;;;;;;9.37;68.35;98103.94;8351213;28;20261;-72
2022/11/29 17:00:22;;;;;;;19.97;17.37;;;;;;;9.40;68.01;98106.41;8351268;28;20233;-71
2022/11/29 17:04:25;;;;;;;19.77;15.77;;;;;;;9.37;68.35;98106.53;8351373;28;20230;-71
2022/11/29 17:08:30;;;;;;;18.40;15.53;;;;;;;9.36;68.50;98104.84;8351166;28;20237;-71
2022/11/29 17:12:33;;;;;;;20.70;17.03;;;;;;;9.29;68.60;98109.41;8350922;28;20234;-71
2022/11/29 17:16:35;;;;;;;18.13;15.00;;;;;;;9.25;69.52;98112.13;8351029;28;20333;-71
2022/11/29 17:20:38;;;;;;;15.83;14.03;;;;;;;9.37;68.81;98104.78;8350854;28;20232;-71
2022/11/29 17:24:43;;;;;;;21.30;16.63;;;;;;;9.37;68.31;98114.28;8350449;28;20231;-72
2022/11/29 17:28:51;;;;;;;17.50;14.50;;;;;;;9.39;68.49;98120.25;8380492;28;20238;-72
2022/11/29 17:32:53;;;;;;;17.77;14.67;;;;;;;9.36;68.90;98116.00;8375048;28;20537;-71
2022/11/29 17:36:57;;;;;;;17.33;14.83;;;;;;;9.41;68.20;98127.94;8383187;28;20246;-71
2022/11/29 17:41:06;;;;;;;16.27;14.57;;;;;;;9.41;68.58;98123.63;8382954;28;20230;-71
2022/11/29 17:45:09;;;;;;;26.97;21.93;;;;;;;9.36;68.66;98130.69;8383085;28;20295;-72
2022/11/29 17:49:12;;;;;;;24.20;20.10;;;;;;;9.13;68.98;98121.19;8382001;28;20229;-71
2022/11/29 17:53:15;;;;;;;22.27;19.03;;;;;;;8.96;69.57;98125.19;8382852;28;20296;-71
2022/11/29 17:57:19;;;;;;;20.47;18.10;;;;;;;9.30;68.78;98136.09;8382752;28;20245;-71
2022/11/29 18:01:24;;;;;;;20.37;18.10;;;;;;;8.86;70.31;98138.50;8382702;28;20273;-72
2022/11/29 18:05:28;;;;;;;14.37;12.87;;;;;;;9.10;69.17;98134.19;8382635;28;20412;-72
2022/11/29 18:09:36;;;;;;;20.97;17.53;;;;;;;8.51;71.06;98138.81;8381969;28;20294;-72
2022/11/29 18:13:40;;;;;;;16.40;14.60;;;;;;;8.65;71.06;98137.50;8381860;28;20237;-72
2022/11/29 18:17:43;;;;;;;18.20;15.67;;;;;;;8.51;70.66;98148.28;8381920;28;20256;-72
2022/11/29 18:21:45;;;;;;;12.83;11.53;;;;;;;8.60;70.51;98150.56;8381922;28;20392;-72
2022/11/29 18:25:55;;;;;;;15.07;13.33;;;;;;;8.49;70.33;98158.69;8381516;28;20249;-72
2022/11/29 18:29:59;;;;;;;21.33;17.13;;;;;;;8.61;70.48;98162.59;8373493;28;20441;-72
2022/11/29 18:34:05;;;;;;;31.47;22.43;;;;;;;8.34;70.32;98138.47;8381241;28;20236;-73
2022/11/29 18:38:08;;;;;;;32.87;24.40;;;;;;;8.77;69.95;98145.66;8381364;28;20308;-73
2022/11/29 18:42:18;;;;;;;18.03;14.97;;;;;;;8.70;69.61;98161.41;8381237;28;20304;-72
2022/11/29 18:46:23;;;;;;;15.50;13.00;;;;;;;8.61;69.17;98178.06;8381136;28;20232;-72
2022/11/29 18:50:26;;;;;;;12.80;11.47;;;;;;;8.28;71.25;98179.97;8381076;28;20228;-72
2022/11/29 18:54:29;;;;;;;17.97;16.00;;;;;;;8.53;70.59;98177.47;8380834;28;20229;-72
2022/11/29 18:58:33;;;;;;;22.20;18.77;;;;;;;8.70;69.75;98167.44;8380753;28;20528;-73
2022/11/29 19:02:37;;;;;;;57.00;43.23;;;;;;;8.77;68.95;98171.47;8380739;28;20229;-72
2022/11/29 19:06:40;;;;;;;49.87;36.87;;;;;;;8.50;68.61;98164.66;8380844;28;20364;-72
2022/11/29 19:10:43;;;;;;;22.07;12.70;;;;;;;10.32;87.10;98164.97;8380379;28;20243;-74
2022/11/29 19:14:46;;;;;;;17.70;13.53;;;;;;;10.92;71.88;98174.59;8380728;28;20239;-73
2022/11/29 19:18:56;;;;;;;15.97;14.23;;;;;;;9.89;66.10;98171.78;8380771;28;20263;-72
2022/11/29 19:22:58;;;;;;;12.53;11.27;;;;;;;9.43;67.45;98175.25;8379987;28;20225;-72
2022/11/29 19:27:03;;;;;;;11.57;10.37;;;;;;;8.86;68.14;98174.66;8380329;28;20262;-71